Share

Alamo, NV

Las Vegas (KBJN) Elev 5761 ft | 37.61 °N, 116.26 °W | Change Station

Current weather conditions updated 41 minutes ago

Clear
Clear
61 °F
Feels Like 61 °F
N
9
Wind Variable Wind from West
Sunrise 6:01 AM
Sunset 7:21 PM
Moon Waning Gibbous

Today is forecast to be Warmer than yesterday.

Pressure 30.31 in
Visibility 10.0 miles
Clouds Clear
Dew Point 29 °F
Humidity 30%
Rainfall 0.00 in
Snow Depth Not available.
UV 7 out of 16
Pollen 8.10 out of 12
Air Quality Not available.
Flu Activity Sporadic
METAR KBJN 191656Z AUTO 26008KT 10SM CLR 16/M02 A3007 RMK AO2 SLP263 T01611017

More Conditions Fewer Conditions

Pressure 30.31 in
Visibility 10.0 miles
Clouds Clear
Dew Point 29 °F
Humidity 30%
Rainfall 0.00 in
Snow Depth Not available.
UV 7 out of 16
Pollen 8.10 out of 12
Air Quality Not available.
Flu Activity Sporadic
METAR KBJN 191656Z AUTO 26008KT 10SM CLR 16/M02 A3007 RMK AO2 SLP263 T01611017

More Conditions Fewer Conditions

10-Day Weather Forecast

Almanac

Astronomy

Apr. 19, 2014 Rise Set
Actual Time 6:01 AM PDT 7:21 PM PDT
Civil Twilight 5:34 AM PDT 7:48 PM PDT
Nautical Twilight 5:01 AM PDT 8:21 PM PDT
Astronomical Twilight 4:27 AM PDT 8:55 PM PDT
Moon No Moon Rise 9:27 AM PDT
Length of Visible Light 14h 13m
Length of Day
13h 19m
Tomorrow will be 2m 14s longer.
Waning Gibbous, 78% of the Moon is Illuminated
Today
Waning Gibbous
Apr 22
Last Quarter
Apr 29
New
May 6
First Quarter
May 14
Full

Today's Extremes

State Highs State Lows

Community

  • A Glorious Morning
    A Glorious Morning
  • Tender Rays Of Hope
    Tender Rays Of Hope
  • Bleeding Hearts
    Bleeding Hearts
  • Sunset Silhouettes
    Sunset Silhouettes
  • FL sunset Perico Isle
    FL sunset Perico Isle

WunderPhotos

Upload Photos

1,702,810 photos uploaded!

WunderBlogs® & News

Nearby

Snow Depth

Station Depth Elevation
Ward Mountain 0 in 9200 ft
Berry Creek 30 in 9100 ft
Diamond Peak 1 in 8000 ft
Big Creek Summit 33 in 8700 ft
Corral Canyon 44 in 8500 ft

Coastal Water Temperatures

Place Temperature
No Stations Reporting

Earthquake Activity

City Distance Mag. Time & Date
No recent earthquake activity has been reported nearby.
Minimum magnitude displayed is 2.5.

Nearby Weather Stations

Station Location Temp. Dew Point Humidity Wind Precip. Elev Updated Type
MesoWest Badger Spring Valley , Alamo, NV 59 °F 33 °F 36% SE  at  4 mph 0.00 in / hr 5574 ft 9:10 AM PDT MADIS
MesoWest Sand Spring Valley , Alamo, NV 57 °F 29 °F 34% WSW  at  0 mph 0.00 in / hr 4810 ft 8:50 AM PDT MADIS

Show More Stations Show Fewer Stations

What do you think?

We're not finished. Please let us know what you like, what you don't like, and what you are still missing.